sensor_id;sensor_type;location;lat;lon;timestamp;temperature;humidity
12843;DHT22;35724;49.324;-123.118;2022-09-09T00:33:22;45.50;30.10
12843;DHT22;35724;49.324;-123.118;2022-09-09T01:33:01;29.30;50.10
12843;DHT22;35724;49.324;-123.118;2022-09-09T01:43:12;28.30;52.90
12843;DHT22;35724;49.324;-123.118;2022-09-09T01:53:24;27.30;54.70
12843;DHT22;35724;49.324;-123.118;2022-09-09T02:03:33;26.70;55.60
12843;DHT22;35724;49.324;-123.118;2022-09-09T02:13:54;25.60;57.60
12843;DHT22;35724;49.324;-123.118;2022-09-09T02:24:05;24.90;59.50
12843;DHT22;35724;49.324;-123.118;2022-09-09T02:34:24;24.50;61.50
12843;DHT22;35724;49.324;-123.118;2022-09-09T02:44:35;24.00;62.60
12843;DHT22;35724;49.324;-123.118;2022-09-09T02:54:47;23.70;70.60
12843;DHT22;35724;49.324;-123.118;2022-09-09T03:04:55;23.40;70.50
12843;DHT22;35724;49.324;-123.118;2022-09-09T03:15:05;23.10;71.90
12843;DHT22;35724;49.324;-123.118;2022-09-09T03:25:14;23.20;73.50
12843;DHT22;35724;49.324;-123.118;2022-09-09T03:35:24;23.10;75.00
12843;DHT22;35724;49.324;-123.118;2022-09-09T03:45:31;23.00;76.20
12843;DHT22;35724;49.324;-123.118;2022-09-09T03:55:44;23.00;77.80
12843;DHT22;35724;49.324;-123.118;2022-09-09T04:05:54;22.80;79.80
12843;DHT22;35724;49.324;-123.118;2022-09-09T04:16:10;22.80;81.80
12843;DHT22;35724;49.324;-123.118;2022-09-09T04:26:46;22.80;83.00
12843;DHT22;35724;49.324;-123.118;2022-09-09T04:37:13;22.60;85.50
12843;DHT22;35724;49.324;-123.118;2022-09-09T04:47:57;22.50;86.30
12843;DHT22;35724;49.324;-123.118;2022-09-09T04:58:08;22.40;87.00
12843;DHT22;35724;49.324;-123.118;2022-09-09T05:08:16;22.30;88.40
12843;DHT22;35724;49.324;-123.118;2022-09-09T05:18:25;22.30;86.20
12843;DHT22;35724;49.324;-123.118;2022-09-09T05:28:34;22.30;85.00
12843;DHT22;35724;49.324;-123.118;2022-09-09T05:38:44;22.30;83.50
12843;DHT22;35724;49.324;-123.118;2022-09-09T05:48:52;22.40;82.70
12843;DHT22;35724;49.324;-123.118;2022-09-09T05:59:08;22.40;82.30
12843;DHT22;35724;49.324;-123.118;2022-09-09T06:09:16;22.30;82.10
12843;DHT22;35724;49.324;-123.118;2022-09-09T06:19:25;22.50;89.20
12843;DHT22;35724;49.324;-123.118;2022-09-09T06:29:34;22.40;87.80
12843;DHT22;35724;49.324;-123.118;2022-09-09T06:39:43;22.30;85.20
12843;DHT22;35724;49.324;-123.118;2022-09-09T06:49:50;22.20;87.70
12843;DHT22;35724;49.324;-123.118;2022-09-09T07:00:16;22.10;89.00
12843;DHT22;35724;49.324;-123.118;2022-09-09T07:10:28;22.00;90.20
12843;DHT22;35724;49.324;-123.118;2022-09-09T07:20:54;21.90;90.10
12843;DHT22;35724;49.324;-123.118;2022-09-09T07:31:25;21.90;90.20
12843;DHT22;35724;49.324;-123.118;2022-09-09T07:41:49;21.80;90.70
12843;DHT22;35724;49.324;-123.118;2022-09-09T07:52:06;21.80;90.80
12843;DHT22;35724;49.324;-123.118;2022-09-09T08:02:33;21.80;90.70
12843;DHT22;35724;49.324;-123.118;2022-09-09T08:12:44;21.80;90.40
12843;DHT22;35724;49.324;-123.118;2022-09-09T08:23:16;21.70;90.50
12843;DHT22;35724;49.324;-123.118;2022-09-09T08:33:24;21.60;90.70
12843;DHT22;35724;49.324;-123.118;2022-09-09T08:43:34;21.60;90.90
12843;DHT22;35724;49.324;-123.118;2022-09-09T08:53:43;21.50;91.10
12843;DHT22;35724;49.324;-123.118;2022-09-09T09:04:16;21.40;91.30
12843;DHT22;35724;49.324;-123.118;2022-09-09T09:14:41;21.30;91.70
12843;DHT22;35724;49.324;-123.118;2022-09-09T09:25:08;21.30;91.70
12843;DHT22;35724;49.324;-123.118;2022-09-09T09:35:23;21.30;91.80
12843;DHT22;35724;49.324;-123.118;2022-09-09T09:45:41;21.30;91.80
12843;DHT22;35724;49.324;-123.118;2022-09-09T09:56:15;21.20;92.00
12843;DHT22;35724;49.324;-123.118;2022-09-09T10:06:43;21.20;92.10
12843;DHT22;35724;49.324;-123.118;2022-09-09T10:18:04;21.10;92.20
12843;DHT22;35724;49.324;-123.118;2022-09-09T10:39:53;21.10;92.40
12843;DHT22;35724;49.324;-123.118;2022-09-09T11:01:13;21.00;92.60
12843;DHT22;35724;49.324;-123.118;2022-09-09T11:11:27;21.00;92.60
12843;DHT22;35724;49.324;-123.118;2022-09-09T11:21:43;21.00;92.80
12843;DHT22;35724;49.324;-123.118;2022-09-09T11:32:03;20.90;92.60
12843;DHT22;35724;49.324;-123.118;2022-09-09T11:42:20;20.90;92.50
12843;DHT22;35724;49.324;-123.118;2022-09-09T11:52:37;20.90;92.50
12843;DHT22;35724;49.324;-123.118;2022-09-09T12:02:50;20.90;92.60
12843;DHT22;35724;49.324;-123.118;2022-09-09T12:13:09;20.80;92.80
12843;DHT22;35724;49.324;-123.118;2022-09-09T12:23:35;20.80;92.60
12843;DHT22;35724;49.324;-123.118;2022-09-09T12:33:51;20.80;92.50
12843;DHT22;35724;49.324;-123.118;2022-09-09T12:44:09;20.80;92.50
12843;DHT22;35724;49.324;-123.118;2022-09-09T12:54:16;20.80;92.30
12843;DHT22;35724;49.324;-123.118;2022-09-09T13:04:33;20.70;92.30
12843;DHT22;35724;49.324;-123.118;2022-09-09T13:14:45;20.70;92.20
12843;DHT22;35724;49.324;-123.118;2022-09-09T13:25:17;20.60;92.40
12843;DHT22;35724;49.324;-123.118;2022-09-09T13:35:28;20.60;92.30
12843;DHT22;35724;49.324;-123.118;2022-09-09T13:45:53;20.60;92.30
12843;DHT22;35724;49.324;-123.118;2022-09-09T13:56:08;20.50;92.40
12843;DHT22;35724;49.324;-123.118;2022-09-09T14:06:18;20.60;92.40
12843;DHT22;35724;49.324;-123.118;2022-09-09T14:16:40;20.60;92.30
12843;DHT22;35724;49.324;-123.118;2022-09-09T14:26:49;20.80;92.60
12843;DHT22;35724;49.324;-123.118;2022-09-09T14:36:56;21.10;91.50
12843;DHT22;35724;49.324;-123.118;2022-09-09T14:47:05;21.30;91.10
12843;DHT22;35724;49.324;-123.118;2022-09-09T14:57:13;21.50;90.40
12843;DHT22;35724;49.324;-123.118;2022-09-09T15:07:33;21.60;90.00
12843;DHT22;35724;49.324;-123.118;2022-09-09T15:17:53;21.70;89.50
12843;DHT22;35724;49.324;-123.118;2022-09-09T15:28:02;21.70;88.90
12843;DHT22;35724;49.324;-123.118;2022-09-09T15:38:22;21.80;88.20
12843;DHT22;35724;49.324;-123.118;2022-09-09T15:48:34;21.60;89.10
12843;DHT22;35724;49.324;-123.118;2022-09-09T15:58:46;21.40;88.10
12843;DHT22;35724;49.324;-123.118;2022-09-09T16:08:59;21.40;87.70
12843;DHT22;35724;49.324;-123.118;2022-09-09T16:19:13;21.50;91.80
12843;DHT22;35724;49.324;-123.118;2022-09-09T16:29:25;21.50;91.20
12843;DHT22;35724;49.324;-123.118;2022-09-09T16:39:34;21.40;90.00
12843;DHT22;35724;49.324;-123.118;2022-09-09T16:49:45;21.30;91.40
12843;DHT22;35724;49.324;-123.118;2022-09-09T17:05:49;21.20;92.70
12843;DHT22;35724;49.324;-123.118;2022-09-09T17:15:57;21.20;91.40
12843;DHT22;35724;49.324;-123.118;2022-09-09T17:26:09;21.20;91.10
12843;DHT22;35724;49.324;-123.118;2022-09-09T17:36:18;21.10;90.20
12843;DHT22;35724;49.324;-123.118;2022-09-09T17:46:29;21.00;90.50
12843;DHT22;35724;49.324;-123.118;2022-09-09T17:56:38;20.90;90.60
12843;DHT22;35724;49.324;-123.118;2022-09-09T18:06:49;20.90;91.00
12843;DHT22;35724;49.324;-123.118;2022-09-09T18:17:01;20.90;91.80
12843;DHT22;35724;49.324;-123.118;2022-09-09T18:27:11;20.90;92.00
12843;DHT22;35724;49.324;-123.118;2022-09-09T18:37:18;21.00;92.10
12843;DHT22;35724;49.324;-123.118;2022-09-09T18:47:26;20.90;92.80
12843;DHT22;35724;49.324;-123.118;2022-09-09T18:57:34;20.80;93.70
12843;DHT22;35724;49.324;-123.118;2022-09-09T19:07:43;20.80;94.30
12843;DHT22;35724;49.324;-123.118;2022-09-09T19:17:51;20.90;94.50
12843;DHT22;35724;49.324;-123.118;2022-09-09T19:28:02;20.80;94.70
12843;DHT22;35724;49.324;-123.118;2022-09-09T19:38:10;20.90;94.70
12843;DHT22;35724;49.324;-123.118;2022-09-09T19:48:18;21.00;93.90
12843;DHT22;35724;49.324;-123.118;2022-09-09T19:58:27;21.20;93.60
12843;DHT22;35724;49.324;-123.118;2022-09-09T20:08:39;21.20;93.70
12843;DHT22;35724;49.324;-123.118;2022-09-09T20:18:52;21.10;93.60
12843;DHT22;35724;49.324;-123.118;2022-09-09T20:29:03;21.00;93.30
12843;DHT22;35724;49.324;-123.118;2022-09-09T20:39:15;21.00;93.30
12843;DHT22;35724;49.324;-123.118;2022-09-09T20:49:25;21.10;92.40
12843;DHT22;35724;49.324;-123.118;2022-09-09T20:59:36;21.30;88.00
12843;DHT22;35724;49.324;-123.118;2022-09-09T21:09:45;21.40;82.40
12843;DHT22;35724;49.324;-123.118;2022-09-09T21:19:52;21.80;82.50
12843;DHT22;35724;49.324;-123.118;2022-09-09T21:30:02;21.90;85.50
12843;DHT22;35724;49.324;-123.118;2022-09-09T21:40:09;22.00;84.60
12843;DHT22;35724;49.324;-123.118;2022-09-09T21:50:18;22.20;82.60
12843;DHT22;35724;49.324;-123.118;2022-09-09T22:00:32;22.40;75.50
12843;DHT22;35724;49.324;-123.118;2022-09-09T22:10:42;22.80;72.90
12843;DHT22;35724;49.324;-123.118;2022-09-09T22:20:50;23.00;72.70
12843;DHT22;35724;49.324;-123.118;2022-09-09T22:30:59;23.30;72.50
12843;DHT22;35724;49.324;-123.118;2022-09-09T22:41:06;23.70;67.80
12843;DHT22;35724;49.324;-123.118;2022-09-09T22:51:16;24.10;62.50
12843;DHT22;35724;49.324;-123.118;2022-09-09T23:01:25;24.50;62.10
12843;DHT22;35724;49.324;-123.118;2022-09-09T23:11:36;24.90;63.20
12843;DHT22;35724;49.324;-123.118;2022-09-09T23:21:45;25.40;63.80
12843;DHT22;35724;49.324;-123.118;2022-09-09T23:32:04;25.70;63.30
12843;DHT22;35724;49.324;-123.118;2022-09-09T23:42:17;25.60;63.70
12843;DHT22;35724;49.324;-123.118;2022-09-09T23:52:26;25.80;64.20
